createdAt,value
2018-05-25T00:04:55.071Z,43
2018-05-25T00:09:54.662Z,45
2018-05-25T00:14:55.113Z,48
2018-05-25T00:19:54.799Z,48
2018-05-25T00:24:54.721Z,47
2018-05-25T00:29:54.964Z,46
2018-05-25T00:34:54.725Z,46
2018-05-25T00:39:54.829Z,46
2018-05-25T00:44:54.892Z,51
2018-05-25T00:49:54.999Z,48
2018-05-25T00:54:54.750Z,48
2018-05-25T00:59:54.947Z,44
2018-05-25T01:04:55.128Z,47
2018-05-25T01:09:54.743Z,48
2018-05-25T01:14:54.676Z,48
2018-05-25T01:19:54.862Z,49
2018-05-25T01:24:54.742Z,49
2018-05-25T01:29:54.607Z,50
2018-05-25T01:34:54.818Z,52
2018-05-25T01:39:54.774Z,50
2018-05-25T01:44:54.904Z,49
2018-05-25T01:49:54.679Z,51
2018-05-25T01:54:54.917Z,51
2018-05-25T01:59:54.584Z,50
2018-05-25T02:04:54.877Z,50
2018-05-25T02:09:54.872Z,53
2018-05-25T02:14:54.768Z,53
2018-05-25T02:19:54.631Z,53
2018-05-25T02:24:54.952Z,53
2018-05-25T02:29:54.649Z,53
2018-05-25T02:34:55.001Z,53
2018-05-25T02:39:54.782Z,55
2018-05-25T02:44:54.843Z,55
2018-05-25T02:49:54.804Z,56
2018-05-25T02:54:54.555Z,52
2018-05-25T02:59:54.697Z,52
2018-05-25T03:04:54.601Z,52
2018-05-25T03:09:54.488Z,52
2018-05-25T03:14:54.426Z,55
2018-05-25T03:19:54.584Z,55
2018-05-25T03:24:54.432Z,55
2018-05-25T03:29:54.629Z,55
2018-05-25T03:34:54.380Z,56
2018-05-25T03:39:54.535Z,55
2018-05-25T03:44:54.618Z,56
2018-05-25T03:49:54.379Z,56
2018-05-25T03:54:54.730Z,55
2018-05-25T03:59:54.472Z,54
2018-05-25T04:04:54.379Z,20
2018-05-25T04:09:54.654Z,53
2018-05-25T04:14:54.676Z,55
2018-05-25T04:19:54.692Z,55
2018-05-25T04:24:54.437Z,55
2018-05-25T04:29:54.698Z,52
2018-05-25T04:34:54.312Z,56
2018-05-25T04:39:54.546Z,56
2018-05-25T04:44:54.326Z,28
2018-05-25T04:49:54.653Z,57
2018-05-25T04:54:54.568Z,57
2018-05-25T04:59:54.379Z,56
2018-05-25T05:04:54.440Z,56
2018-05-25T05:09:54.352Z,65
2018-05-25T05:14:54.537Z,54
2018-05-25T05:19:54.288Z,58
2018-05-25T05:24:54.586Z,60
2018-05-25T05:29:54.362Z,60
2018-05-25T05:34:54.576Z,60
2018-05-25T05:39:54.384Z,60
2018-05-25T05:49:54.535Z,60
2018-05-25T05:54:54.377Z,59
2018-05-25T05:59:54.519Z,55
2018-05-25T06:04:54.276Z,59
2018-05-25T06:09:54.574Z,54
2018-05-25T06:14:54.245Z,55
2018-05-25T06:19:54.460Z,60
2018-05-25T06:24:54.319Z,54
2018-05-25T06:29:54.124Z,57
2018-05-25T06:34:54.353Z,54
2018-05-25T06:39:54.630Z,54
2018-05-25T06:44:54.411Z,26
2018-05-25T06:49:54.324Z,26
2018-05-25T06:54:54.184Z,53
2018-05-25T06:59:54.114Z,50
2018-05-25T07:04:54.584Z,60
2018-05-25T07:09:54.452Z,53
2018-05-25T07:14:54.445Z,52
2018-05-25T07:19:56.336Z,52
2018-05-25T07:24:54.102Z,53
2018-05-25T07:29:54.306Z,56
2018-05-25T07:34:54.030Z,51
2018-05-25T07:39:54.208Z,55
2018-05-25T07:44:54.313Z,55
2018-05-25T07:49:54.121Z,51
2018-05-25T07:54:54.071Z,49
2018-05-25T07:59:54.343Z,50
2018-05-25T08:04:54.224Z,43
2018-05-25T08:09:54.336Z,44
2018-05-25T08:14:54.308Z,44
2018-05-25T08:19:54.343Z,41
2018-05-25T08:24:54.134Z,36
2018-05-25T08:29:53.998Z,31
2018-05-25T08:34:54.190Z,30
2018-05-25T08:39:54.295Z,37
2018-05-25T08:44:54.152Z,39
2018-05-25T08:49:53.947Z,43
2018-05-25T08:54:54.248Z,41
2018-05-25T08:59:54.024Z,41
2018-05-25T09:04:54.197Z,36
2018-05-25T09:09:53.963Z,40
2018-05-25T09:14:54.252Z,35
2018-05-25T09:19:53.917Z,35
2018-05-25T09:24:54.152Z,35
2018-05-25T09:29:54.023Z,35
2018-05-25T09:34:54.183Z,33
2018-05-25T09:39:54.223Z,33
2018-05-25T09:44:53.880Z,40
2018-05-25T09:49:54.149Z,31
2018-05-25T09:54:54.015Z,33
2018-05-25T09:59:53.913Z,35
2018-05-25T10:04:54.016Z,37
2018-05-25T10:09:54.190Z,37
2018-05-25T10:14:53.928Z,37
2018-05-25T10:19:54.055Z,37
2018-05-25T10:24:53.963Z,37
2018-05-25T10:29:54.142Z,33
2018-05-25T10:34:53.863Z,34
2018-05-25T10:39:54.046Z,34
2018-05-25T10:44:53.980Z,38
2018-05-25T10:49:54.017Z,39
2018-05-25T10:54:53.759Z,39
2018-05-25T10:59:53.967Z,39
2018-05-25T11:04:53.778Z,38
2018-05-25T11:09:53.971Z,38
2018-05-25T11:14:54.052Z,40
2018-05-25T11:19:53.763Z,40
2018-05-25T11:24:53.840Z,40
2018-05-25T11:29:54.033Z,35
2018-05-25T11:34:53.825Z,36
2018-05-25T11:39:53.995Z,34
2018-05-25T11:44:53.796Z,35
2018-05-25T11:49:54.127Z,37
2018-05-25T11:54:53.878Z,35
2018-05-25T11:59:53.785Z,30
2018-05-25T12:04:53.868Z,35
2018-05-25T12:09:53.802Z,30
2018-05-25T12:14:53.929Z,31
2018-05-25T12:19:53.780Z,31
2018-05-25T12:24:53.870Z,31
2018-05-25T12:29:53.785Z,31
2018-05-25T12:34:53.632Z,30
2018-05-25T12:39:53.789Z,30
2018-05-25T12:44:53.838Z,30
2018-05-25T12:49:54.007Z,29
2018-05-25T12:54:54.080Z,29
2018-05-25T12:59:53.691Z,29
2018-05-25T13:04:53.894Z,31
2018-05-25T13:09:53.630Z,28
2018-05-25T13:14:53.512Z,23
2018-05-25T13:19:53.610Z,30
2018-05-25T13:24:53.771Z,25
2018-05-25T13:29:53.708Z,25
2018-05-25T13:34:53.764Z,20
2018-05-25T13:39:53.597Z,21
2018-05-25T13:44:53.969Z,39
2018-05-25T13:49:53.704Z,39
2018-05-25T13:54:53.800Z,39
2018-05-25T13:59:53.695Z,20
2018-05-25T14:04:53.731Z,20
2018-05-25T14:09:53.511Z,20
2018-05-25T14:14:53.561Z,21
2018-05-25T14:19:53.629Z,21
2018-05-25T14:24:53.695Z,29
2018-05-25T14:29:53.679Z,27
2018-05-25T14:34:53.447Z,27
2018-05-25T14:39:53.641Z,32
2018-05-25T14:44:53.401Z,32
2018-05-25T14:49:53.635Z,32
2018-05-25T14:54:53.412Z,35
2018-05-25T14:59:53.690Z,35
2018-05-25T15:04:53.372Z,34
2018-05-25T15:09:53.808Z,34
2018-05-25T15:14:53.448Z,34
2018-05-25T15:19:53.700Z,34
2018-05-25T15:24:53.619Z,35
2018-05-25T15:29:53.374Z,35
2018-05-25T15:34:53.597Z,30
2018-05-25T15:39:53.362Z,30
2018-05-25T15:44:53.564Z,30
2018-05-25T15:49:53.269Z,35
2018-05-25T15:54:53.595Z,34
2018-05-25T15:59:53.388Z,36
2018-05-25T16:04:53.677Z,34
2018-05-25T16:09:53.639Z,30
2018-05-25T16:14:53.337Z,30
2018-05-25T16:19:53.474Z,32
2018-05-25T16:24:53.294Z,35
2018-05-25T16:29:53.590Z,37
2018-05-25T16:34:53.381Z,37
2018-05-25T16:39:53.577Z,39
2018-05-25T16:44:53.526Z,26
2018-05-25T16:49:53.317Z,25
2018-05-25T16:54:53.857Z,30
2018-05-25T16:59:53.348Z,40
2018-05-25T17:04:53.512Z,45
2018-05-25T17:09:53.377Z,45
2018-05-25T17:14:53.437Z,39
2018-05-25T17:19:53.175Z,39
2018-05-25T17:24:53.506Z,37
2018-05-25T17:29:53.310Z,35
2018-05-25T17:34:53.558Z,35
2018-05-25T17:39:53.178Z,38
2018-05-25T17:44:53.377Z,38
2018-05-25T17:49:53.169Z,37
2018-05-25T17:54:53.348Z,38
2018-05-25T17:59:53.207Z,39
2018-05-25T18:04:53.320Z,36
2018-05-25T18:09:53.269Z,38
2018-05-25T18:14:53.256Z,34
2018-05-25T18:19:53.404Z,35
2018-05-25T18:24:53.346Z,34
2018-05-25T18:29:53.356Z,32
2018-05-25T18:34:53.186Z,35
2018-05-25T18:39:53.265Z,32
2018-05-25T18:44:53.212Z,35
2018-05-25T18:49:53.532Z,35
2018-05-25T18:54:53.209Z,37
2018-05-25T18:59:53.351Z,35
2018-05-25T19:04:53.187Z,35
2018-05-25T19:09:53.327Z,35
2018-05-25T19:14:53.155Z,33
2018-05-25T19:19:53.242Z,31
2018-05-25T19:24:52.988Z,34
2018-05-25T19:29:53.346Z,35
2018-05-25T19:34:53.323Z,34
2018-05-25T19:39:53.122Z,35
2018-05-25T19:44:52.980Z,38
2018-05-25T19:49:53.110Z,38
2018-05-25T19:54:53.240Z,35
2018-05-25T19:59:53.045Z,37
2018-05-25T20:04:53.248Z,35
2018-05-25T20:09:53.006Z,37
2018-05-25T20:14:53.509Z,35
2018-05-25T20:19:53.058Z,38
2018-05-25T20:24:52.944Z,35
2018-05-25T20:29:53.477Z,35
2018-05-25T20:34:53.105Z,37
2018-05-25T20:39:52.921Z,34
2018-05-25T20:44:53.189Z,35
2018-05-25T20:49:52.950Z,34
2018-05-25T20:54:53.215Z,38
2018-05-25T20:59:52.994Z,41
2018-05-25T21:04:53.256Z,38
2018-05-25T21:09:53.073Z,38
2018-05-25T21:14:52.957Z,39
2018-05-25T21:19:53.128Z,39
2018-05-25T21:24:52.977Z,39
2018-05-25T21:29:53.168Z,40
2018-05-25T21:34:52.877Z,40
2018-05-25T21:39:53.159Z,39
2018-05-25T21:44:52.928Z,40
2018-05-25T21:49:53.262Z,41
2018-05-25T21:54:52.930Z,44
2018-05-25T21:59:53.136Z,45
2018-05-25T22:04:52.999Z,45
2018-05-25T22:09:52.927Z,49
2018-05-25T22:14:52.892Z,56
2018-05-25T22:19:53.142Z,55
2018-05-25T22:24:53.013Z,52
2018-05-25T22:29:52.843Z,52
2018-05-25T22:34:52.793Z,52
2018-05-25T22:39:53.074Z,52
2018-05-25T22:44:52.660Z,41
2018-05-25T22:49:52.852Z,43
2018-05-25T22:54:52.691Z,43
2018-05-25T22:59:52.959Z,43
2018-05-25T23:04:52.771Z,40
2018-05-25T23:09:53.129Z,40
2018-05-25T23:14:52.907Z,39
2018-05-25T23:19:52.731Z,45
2018-05-25T23:24:52.881Z,39
2018-05-25T23:29:52.687Z,39
2018-05-25T23:34:52.867Z,39
2018-05-25T23:39:52.727Z,43
2018-05-25T23:44:52.979Z,45
2018-05-25T23:49:52.741Z,41
2018-05-25T23:54:53.017Z,45
2018-05-25T23:59:52.627Z,43
